sensor_id;sensor_type;location;lat;lon;timestamp;pressure;altitude;pressure_sealevel;temperature;humidity
38038;BME280;23843;51.320;12.340;2023-05-22T00:01:36;100330.19;;;18.71;100.00
38038;BME280;23843;51.320;12.340;2023-05-22T00:04:02;100330.19;;;18.71;100.00
38038;BME280;23843;51.320;12.340;2023-05-22T00:06:27;100330.47;;;18.68;100.00
38038;BME280;23843;51.320;12.340;2023-05-22T00:08:53;100329.75;;;18.66;100.00
38038;BME280;23843;51.320;12.340;2023-05-22T00:11:18;100327.19;;;18.65;100.00
38038;BME280;23843;51.320;12.340;2023-05-22T00:13:44;100327.19;;;18.65;100.00
38038;BME280;23843;51.320;12.340;2023-05-22T00:16:09;100322.00;;;18.63;100.00
38038;BME280;23843;51.320;12.340;2023-05-22T00:18:36;100321.25;;;18.61;100.00
38038;BME280;23843;51.320;12.340;2023-05-22T00:21:01;100324.78;;;18.61;100.00
38038;BME280;23843;51.320;12.340;2023-05-22T00:23:27;100320.53;;;18.59;100.00
38038;BME280;23843;51.320;12.340;2023-05-22T00:25:52;100316.31;;;18.56;100.00
38038;BME280;23843;51.320;12.340;2023-05-22T00:28:18;100317.44;;;18.54;100.00
38038;BME280;23843;51.320;12.340;2023-05-22T00:30:43;100316.84;;;18.50;100.00
38038;BME280;23843;51.320;12.340;2023-05-22T00:33:09;100314.31;;;18.49;100.00
38038;BME280;23843;51.320;12.340;2023-05-22T00:35:36;100312.59;;;18.48;100.00
38038;BME280;23843;51.320;12.340;2023-05-22T00:38:02;100310.47;;;18.42;100.00
38038;BME280;23843;51.320;12.340;2023-05-22T00:40:28;100311.56;;;18.39;100.00
38038;BME280;23843;51.320;12.340;2023-05-22T00:42:53;100313.81;;;18.34;100.00
38038;BME280;23843;51.320;12.340;2023-05-22T00:45:19;100307.84;;;18.30;100.00
38038;BME280;23843;51.320;12.340;2023-05-22T00:47:44;100306.41;;;18.26;100.00
38038;BME280;23843;51.320;12.340;2023-05-22T00:50:10;100310.81;;;18.27;100.00
38038;BME280;23843;51.320;12.340;2023-05-22T00:52:40;100304.84;;;18.24;100.00
38038;BME280;23843;51.320;12.340;2023-05-22T00:55:08;100313.28;;;18.19;100.00
38038;BME280;23843;51.320;12.340;2023-05-22T00:57:35;100302.84;;;18.16;100.00
38038;BME280;23843;51.320;12.340;2023-05-22T01:00:02;100305.78;;;18.13;100.00
38038;BME280;23843;51.320;12.340;2023-05-22T01:02:28;100296.59;;;18.06;100.00
38038;BME280;23843;51.320;12.340;2023-05-22T01:04:54;100301.94;;;18.06;100.00
38038;BME280;23843;51.320;12.340;2023-05-22T01:07:19;100294.91;;;18.05;100.00
38038;BME280;23843;51.320;12.340;2023-05-22T01:09:46;100293.06;;;18.05;100.00
38038;BME280;23843;51.320;12.340;2023-05-22T01:12:17;100292.59;;;18.00;100.00
38038;BME280;23843;51.320;12.340;2023-05-22T01:14:49;100293.97;;;17.94;100.00
38038;BME280;23843;51.320;12.340;2023-05-22T01:17:24;100295.97;;;17.92;100.00
38038;BME280;23843;51.320;12.340;2023-05-22T01:19:58;100299.75;;;17.90;100.00
38038;BME280;23843;51.320;12.340;2023-05-22T01:22:45;100298.16;;;17.87;100.00
38038;BME280;23843;51.320;12.340;2023-05-22T01:25:33;100299.03;;;17.88;100.00
38038;BME280;23843;51.320;12.340;2023-05-22T01:28:10;100293.66;;;17.88;100.00
38038;BME280;23843;51.320;12.340;2023-05-22T01:30:46;100302.09;;;17.83;100.00
38038;BME280;23843;51.320;12.340;2023-05-22T01:33:14;100305.41;;;17.75;100.00
38038;BME280;23843;51.320;12.340;2023-05-22T01:35:44;100302.97;;;17.72;100.00
38038;BME280;23843;51.320;12.340;2023-05-22T01:38:11;100303.34;;;17.68;100.00
38038;BME280;23843;51.320;12.340;2023-05-22T01:40:37;100298.25;;;17.65;100.00
38038;BME280;23843;51.320;12.340;2023-05-22T01:43:03;100297.78;;;17.60;100.00
38038;BME280;23843;51.320;12.340;2023-05-22T01:45:29;100301.94;;;17.64;100.00
38038;BME280;23843;51.320;12.340;2023-05-22T01:47:56;100303.16;;;17.60;100.00
38038;BME280;23843;51.320;12.340;2023-05-22T01:50:22;100309.50;;;17.59;100.00
38038;BME280;23843;51.320;12.340;2023-05-22T01:52:52;100309.75;;;17.55;100.00
38038;BME280;23843;51.320;12.340;2023-05-22T01:55:24;100310.84;;;17.53;100.00
38038;BME280;23843;51.320;12.340;2023-05-22T01:57:56;100311.97;;;17.50;100.00
38038;BME280;23843;51.320;12.340;2023-05-22T02:00:24;100313.94;;;17.48;100.00
38038;BME280;23843;51.320;12.340;2023-05-22T02:02:57;100307.84;;;17.46;100.00
38038;BME280;23843;51.320;12.340;2023-05-22T02:05:25;100307.97;;;17.45;100.00
38038;BME280;23843;51.320;12.340;2023-05-22T02:07:52;100314.44;;;17.42;100.00
38038;BME280;23843;51.320;12.340;2023-05-22T02:10:20;100311.19;;;17.39;100.00
38038;BME280;23843;51.320;12.340;2023-05-22T02:12:47;100318.59;;;17.35;100.00
38038;BME280;23843;51.320;12.340;2023-05-22T02:15:13;100303.66;;;17.32;100.00
38038;BME280;23843;51.320;12.340;2023-05-22T02:17:38;100307.44;;;17.30;100.00
38038;BME280;23843;51.320;12.340;2023-05-22T02:20:09;100305.00;;;17.27;100.00
38038;BME280;23843;51.320;12.340;2023-05-22T02:22:34;100297.94;;;17.26;100.00
38038;BME280;23843;51.320;12.340;2023-05-22T02:25:00;100299.88;;;17.24;100.00
38038;BME280;23843;51.320;12.340;2023-05-22T02:27:25;100294.53;;;17.24;100.00
38038;BME280;23843;51.320;12.340;2023-05-22T02:29:51;100298.47;;;17.20;100.00
38038;BME280;23843;51.320;12.340;2023-05-22T02:32:16;100296.75;;;17.19;100.00
38038;BME280;23843;51.320;12.340;2023-05-22T02:34:42;100296.75;;;17.19;100.00
38038;BME280;23843;51.320;12.340;2023-05-22T02:37:08;100295.91;;;17.18;100.00
38038;BME280;23843;51.320;12.340;2023-05-22T02:39:34;100297.75;;;17.18;100.00
38038;BME280;23843;51.320;12.340;2023-05-22T02:41:59;100295.31;;;17.15;100.00
38038;BME280;23843;51.320;12.340;2023-05-22T02:44:25;100301.53;;;17.15;100.00
38038;BME280;23843;51.320;12.340;2023-05-22T02:46:50;100301.78;;;17.12;100.00
38038;BME280;23843;51.320;12.340;2023-05-22T02:49:16;100303.38;;;17.03;100.00
38038;BME280;23843;51.320;12.340;2023-05-22T02:51:41;100289.88;;;17.05;100.00
38038;BME280;23843;51.320;12.340;2023-05-22T02:54:08;100296.34;;;17.02;100.00
38038;BME280;23843;51.320;12.340;2023-05-22T02:56:33;100296.56;;;16.99;100.00
38038;BME280;23843;51.320;12.340;2023-05-22T02:58:59;100282.47;;;16.97;100.00
38038;BME280;23843;51.320;12.340;2023-05-22T03:01:24;100280.75;;;16.96;100.00
38038;BME280;23843;51.320;12.340;2023-05-22T03:03:50;100287.22;;;16.94;100.00
38038;BME280;23843;51.320;12.340;2023-05-22T03:06:15;100279.44;;;16.90;100.00
38038;BME280;23843;51.320;12.340;2023-05-22T03:08:40;100278.97;;;16.85;100.00
38038;BME280;23843;51.320;12.340;2023-05-22T03:13:48;100273.84;;;16.82;100.00
38038;BME280;23843;51.320;12.340;2023-05-22T03:16:19;100278.38;;;16.82;100.00
38038;BME280;23843;51.320;12.340;2023-05-22T03:18:45;100279.47;;;16.79;100.00
38038;BME280;23843;51.320;12.340;2023-05-22T03:21:10;100276.16;;;16.76;100.00
38038;BME280;23843;51.320;12.340;2023-05-22T03:23:36;100279.06;;;16.73;100.00
38038;BME280;23843;51.320;12.340;2023-05-22T03:26:01;100273.03;;;16.71;100.00
38038;BME280;23843;51.320;12.340;2023-05-22T03:28:28;100275.56;;;16.72;100.00
38038;BME280;23843;51.320;12.340;2023-05-22T03:30:53;100278.13;;;16.74;100.00
38038;BME280;23843;51.320;12.340;2023-05-22T03:33:19;100274.59;;;16.73;100.00
38038;BME280;23843;51.320;12.340;2023-05-22T03:35:44;100275.19;;;16.77;100.00
38038;BME280;23843;51.320;12.340;2023-05-22T03:38:10;100274.00;;;16.81;100.00
38038;BME280;23843;51.320;12.340;2023-05-22T03:40:35;100278.63;;;16.79;100.00
38038;BME280;23843;51.320;12.340;2023-05-22T03:43:01;100283.97;;;16.79;100.00
38038;BME280;23843;51.320;12.340;2023-05-22T03:45:27;100285.44;;;16.83;100.00
38038;BME280;23843;51.320;12.340;2023-05-22T03:47:53;100283.47;;;16.85;100.00
38038;BME280;23843;51.320;12.340;2023-05-22T03:50:18;100271.78;;;16.86;100.00
38038;BME280;23843;51.320;12.340;2023-05-22T03:52:45;100288.44;;;16.89;100.00
38038;BME280;23843;51.320;12.340;2023-05-22T03:55:10;100285.38;;;16.94;100.00
38038;BME280;23843;51.320;12.340;2023-05-22T03:57:35;100279.91;;;16.96;100.00
38038;BME280;23843;51.320;12.340;2023-05-22T04:00:01;100277.81;;;16.99;100.00
38038;BME280;23843;51.320;12.340;2023-05-22T04:02:28;100280.13;;;17.04;100.00
38038;BME280;23843;51.320;12.340;2023-05-22T04:04:53;100275.13;;;17.10;100.00
38038;BME280;23843;51.320;12.340;2023-05-22T04:07:19;100276.13;;;17.09;100.00
38038;BME280;23843;51.320;12.340;2023-05-22T04:09:44;100276.59;;;17.15;100.00
38038;BME280;23843;51.320;12.340;2023-05-22T04:12:10;100275.41;;;17.07;100.00
38038;BME280;23843;51.320;12.340;2023-05-22T04:14:35;100270.75;;;17.09;100.00
38038;BME280;23843;51.320;12.340;2023-05-22T04:17:01;100266.84;;;17.14;100.00
38038;BME280;23843;51.320;12.340;2023-05-22T04:19:28;100266.91;;;17.23;100.00
38038;BME280;23843;51.320;12.340;2023-05-22T04:21:53;100277.72;;;17.33;100.00
38038;BME280;23843;51.320;12.340;2023-05-22T04:24:19;100269.84;;;17.31;100.00
38038;BME280;23843;51.320;12.340;2023-05-22T04:26:44;100266.50;;;17.39;100.00
38038;BME280;23843;51.320;12.340;2023-05-22T04:29:09;100262.34;;;17.46;100.00
38038;BME280;23843;51.320;12.340;2023-05-22T04:31:35;100273.03;;;17.46;100.00
38038;BME280;23843;51.320;12.340;2023-05-22T04:34:01;100272.50;;;17.52;100.00
38038;BME280;23843;51.320;12.340;2023-05-22T04:36:27;100275.66;;;17.58;100.00
38038;BME280;23843;51.320;12.340;2023-05-22T04:38:53;100279.88;;;17.60;100.00
38038;BME280;23843;51.320;12.340;2023-05-22T04:41:19;100280.03;;;17.59;100.00
38038;BME280;23843;51.320;12.340;2023-05-22T04:43:45;100277.09;;;17.62;100.00
38038;BME280;23843;51.320;12.340;2023-05-22T04:46:10;100284.59;;;17.68;100.00
38038;BME280;23843;51.320;12.340;2023-05-22T04:48:36;100283.09;;;17.75;100.00
38038;BME280;23843;51.320;12.340;2023-05-22T04:51:01;100284.81;;;17.76;100.00
38038;BME280;23843;51.320;12.340;2023-05-22T04:53:28;100284.91;;;17.86;100.00
38038;BME280;23843;51.320;12.340;2023-05-22T04:55:54;100284.69;;;17.99;100.00
38038;BME280;23843;51.320;12.340;2023-05-22T04:58:19;100283.91;;;18.08;100.00
38038;BME280;23843;51.320;12.340;2023-05-22T05:00:45;100278.25;;;18.11;100.00
38038;BME280;23843;51.320;12.340;2023-05-22T05:03:10;100285.59;;;18.09;100.00
38038;BME280;23843;51.320;12.340;2023-05-22T05:05:36;100273.22;;;18.17;100.00
38038;BME280;23843;51.320;12.340;2023-05-22T05:08:01;100271.84;;;18.23;100.00
38038;BME280;23843;51.320;12.340;2023-05-22T05:10:28;100276.00;;;18.37;100.00
38038;BME280;23843;51.320;12.340;2023-05-22T05:12:54;100281.84;;;18.52;100.00
38038;BME280;23843;51.320;12.340;2023-05-22T05:15:19;100273.38;;;18.56;100.00
38038;BME280;23843;51.320;12.340;2023-05-22T05:17:45;100276.09;;;18.66;100.00
38038;BME280;23843;51.320;12.340;2023-05-22T05:20:11;100272.06;;;18.81;100.00
38038;BME280;23843;51.320;12.340;2023-05-22T05:22:36;100271.09;;;18.83;100.00
38038;BME280;23843;51.320;12.340;2023-05-22T05:25:02;100275.91;;;18.98;100.00
38038;BME280;23843;51.320;12.340;2023-05-22T05:27:29;100274.47;;;19.04;99.57
38038;BME280;23843;51.320;12.340;2023-05-22T05:29:54;100277.16;;;19.04;98.08
38038;BME280;23843;51.320;12.340;2023-05-22T05:32:20;100271.53;;;19.07;98.67
38038;BME280;23843;51.320;12.340;2023-05-22T05:34:45;100271.38;;;19.18;98.21
38038;BME280;23843;51.320;12.340;2023-05-22T05:37:10;100270.13;;;19.42;97.74
38038;BME280;23843;51.320;12.340;2023-05-22T05:39:36;100276.91;;;19.65;95.42
38038;BME280;23843;51.320;12.340;2023-05-22T05:42:01;100277.59;;;19.87;93.77
38038;BME280;23843;51.320;12.340;2023-05-22T05:44:28;100280.81;;;20.00;93.06
38038;BME280;23843;51.320;12.340;2023-05-22T05:46:54;100279.94;;;20.09;91.57
38038;BME280;23843;51.320;12.340;2023-05-22T05:49:19;100279.88;;;20.29;91.97
38038;BME280;23843;51.320;12.340;2023-05-22T05:51:45;100279.28;;;20.35;90.31
38038;BME280;23843;51.320;12.340;2023-05-22T05:54:10;100272.72;;;20.47;90.54
38038;BME280;23843;51.320;12.340;2023-05-22T05:56:36;100275.53;;;20.56;89.66
38038;BME280;23843;51.320;12.340;2023-05-22T05:59:02;100279.97;;;20.74;89.48
38038;BME280;23843;51.320;12.340;2023-05-22T06:01:32;100285.91;;;20.78;88.26
38038;BME280;23843;51.320;12.340;2023-05-22T06:03:58;100277.16;;;20.94;86.41
38038;BME280;23843;51.320;12.340;2023-05-22T06:06:23;100290.03;;;21.00;87.42
38038;BME280;23843;51.320;12.340;2023-05-22T06:08:49;100279.78;;;21.04;87.31
38038;BME280;23843;51.320;12.340;2023-05-22T06:11:14;100280.34;;;21.07;88.55
38038;BME280;23843;51.320;12.340;2023-05-22T06:13:40;100275.72;;;21.17;85.03
38038;BME280;23843;51.320;12.340;2023-05-22T06:16:06;100284.00;;;21.06;85.94
38038;BME280;23843;51.320;12.340;2023-05-22T06:18:34;100278.09;;;21.21;86.05
38038;BME280;23843;51.320;12.340;2023-05-22T06:20:59;100278.91;;;21.49;83.44
38038;BME280;23843;51.320;12.340;2023-05-22T06:23:25;100273.06;;;21.79;81.99
38038;BME280;23843;51.320;12.340;2023-05-22T06:25:50;100278.19;;;22.17;79.34
38038;BME280;23843;51.320;12.340;2023-05-22T06:28:16;100276.28;;;22.35;78.63
38038;BME280;23843;51.320;12.340;2023-05-22T06:30:41;100274.97;;;22.39;77.31
38038;BME280;23843;51.320;12.340;2023-05-22T06:33:07;100275.34;;;22.53;76.40
38038;BME280;23843;51.320;12.340;2023-05-22T06:35:36;100274.09;;;22.73;75.17
38038;BME280;23843;51.320;12.340;2023-05-22T06:38:02;100269.25;;;22.93;74.30
38038;BME280;23843;51.320;12.340;2023-05-22T06:40:27;100267.31;;;23.28;73.11
38038;BME280;23843;51.320;12.340;2023-05-22T06:42:53;100276.44;;;23.92;75.15
38038;BME280;23843;51.320;12.340;2023-05-22T06:45:18;100261.94;;;24.49;72.14
38038;BME280;23843;51.320;12.340;2023-05-22T06:47:44;100269.19;;;25.11;68.20
38038;BME280;23843;51.320;12.340;2023-05-22T06:50:10;100264.19;;;25.69;58.50
38038;BME280;23843;51.320;12.340;2023-05-22T06:52:37;100259.72;;;26.59;63.21
38038;BME280;23843;51.320;12.340;2023-05-22T06:55:03;100262.00;;;27.13;52.45
38038;BME280;23843;51.320;12.340;2023-05-22T06:57:28;100260.44;;;26.67;49.79
38038;BME280;23843;51.320;12.340;2023-05-22T06:59:54;100266.63;;;26.46;51.13
38038;BME280;23843;51.320;12.340;2023-05-22T07:02:19;100262.72;;;26.34;52.28
38038;BME280;23843;51.320;12.340;2023-05-22T07:04:45;100258.38;;;26.69;50.99
38038;BME280;23843;51.320;12.340;2023-05-22T07:07:10;100250.09;;;26.93;54.05
38038;BME280;23843;51.320;12.340;2023-05-22T07:09:37;100254.06;;;27.33;46.82
38038;BME280;23843;51.320;12.340;2023-05-22T07:12:04;100252.22;;;27.62;51.18
38038;BME280;23843;51.320;12.340;2023-05-22T07:14:29;100252.28;;;28.25;45.06
38038;BME280;23843;51.320;12.340;2023-05-22T07:16:55;100254.50;;;28.97;44.38
38038;BME280;23843;51.320;12.340;2023-05-22T07:19:20;100254.16;;;29.40;41.16
38038;BME280;23843;51.320;12.340;2023-05-22T07:21:45;100252.44;;;29.13;42.72
38038;BME280;23843;51.320;12.340;2023-05-22T07:24:11;100248.72;;;29.54;45.77
38038;BME280;23843;51.320;12.340;2023-05-22T07:26:40;100247.47;;;29.83;40.84
38038;BME280;23843;51.320;12.340;2023-05-22T07:29:05;100257.56;;;29.69;40.36
38038;BME280;23843;51.320;12.340;2023-05-22T07:31:31;100254.19;;;29.54;43.05
38038;BME280;23843;51.320;12.340;2023-05-22T07:33:57;100245.34;;;29.38;41.38
38038;BME280;23843;51.320;12.340;2023-05-22T07:36:22;100254.16;;;29.60;39.99
38038;BME280;23843;51.320;12.340;2023-05-22T07:38:48;100253.34;;;29.86;41.10
38038;BME280;23843;51.320;12.340;2023-05-22T07:41:13;100244.94;;;29.61;44.46
38038;BME280;23843;51.320;12.340;2023-05-22T07:43:40;100245.56;;;29.70;43.49
38038;BME280;23843;51.320;12.340;2023-05-22T07:46:06;100245.81;;;29.75;41.47
38038;BME280;23843;51.320;12.340;2023-05-22T07:48:31;100246.41;;;29.64;44.42
38038;BME280;23843;51.320;12.340;2023-05-22T07:50:57;100246.84;;;29.61;42.42
38038;BME280;23843;51.320;12.340;2023-05-22T07:53:22;100250.41;;;29.75;40.54
38038;BME280;23843;51.320;12.340;2023-05-22T07:55:51;100254.13;;;30.20;39.94
38038;BME280;23843;51.320;12.340;2023-05-22T07:58:16;100253.00;;;31.00;39.27
38038;BME280;23843;51.320;12.340;2023-05-22T08:00:43;100251.75;;;31.59;37.56
38038;BME280;23843;51.320;12.340;2023-05-22T08:03:09;100245.88;;;32.06;35.48
38038;BME280;23843;51.320;12.340;2023-05-22T08:05:34;100250.81;;;33.01;34.18
38038;BME280;23843;51.320;12.340;2023-05-22T08:08:00;100236.06;;;33.44;34.31
38038;BME280;23843;51.320;12.340;2023-05-22T08:10:25;100239.03;;;33.54;31.78
38038;BME280;23843;51.320;12.340;2023-05-22T08:12:51;100243.88;;;34.18;32.05
38038;BME280;23843;51.320;12.340;2023-05-22T08:15:16;100242.22;;;34.69;31.47
38038;BME280;23843;51.320;12.340;2023-05-22T08:17:43;100230.84;;;35.40;33.87
38038;BME280;23843;51.320;12.340;2023-05-22T08:20:10;100241.53;;;35.53;28.20
38038;BME280;23843;51.320;12.340;2023-05-22T08:22:37;100244.38;;;35.58;28.68
38038;BME280;23843;51.320;12.340;2023-05-22T08:25:03;100226.84;;;35.47;28.81
38038;BME280;23843;51.320;12.340;2023-05-22T08:27:29;100231.38;;;35.53;28.80
38038;BME280;23843;51.320;12.340;2023-05-22T08:29:54;100237.78;;;35.93;31.77
38038;BME280;23843;51.320;12.340;2023-05-22T08:32:20;100239.84;;;35.18;29.68
38038;BME280;23843;51.320;12.340;2023-05-22T08:34:46;100231.88;;;34.36;28.07
38038;BME280;23843;51.320;12.340;2023-05-22T08:37:12;100234.91;;;34.22;29.56
38038;BME280;23843;51.320;12.340;2023-05-22T08:39:38;100239.28;;;34.35;28.30
38038;BME280;23843;51.320;12.340;2023-05-22T08:42:04;100236.28;;;34.48;26.92
38038;BME280;23843;51.320;12.340;2023-05-22T08:44:30;100227.09;;;34.83;26.95
38038;BME280;23843;51.320;12.340;2023-05-22T08:46:57;100221.56;;;35.46;25.55
38038;BME280;23843;51.320;12.340;2023-05-22T08:49:25;100227.72;;;36.04;27.39
38038;BME280;23843;51.320;12.340;2023-05-22T08:51:55;100213.59;;;36.17;23.88
38038;BME280;23843;51.320;12.340;2023-05-22T08:54:25;100209.25;;;36.04;25.50
38038;BME280;23843;51.320;12.340;2023-05-22T08:56:54;100215.00;;;35.30;24.63
38038;BME280;23843;51.320;12.340;2023-05-22T08:59:20;100208.34;;;34.97;25.07
38038;BME280;23843;51.320;12.340;2023-05-22T09:01:46;100213.31;;;34.83;24.89
38038;BME280;23843;51.320;12.340;2023-05-22T09:04:12;100209.34;;;34.10;26.06
38038;BME280;23843;51.320;12.340;2023-05-22T09:06:37;100202.13;;;33.50;28.37
38038;BME280;23843;51.320;12.340;2023-05-22T09:09:04;100213.91;;;32.55;28.44
38038;BME280;23843;51.320;12.340;2023-05-22T09:11:30;100197.16;;;32.08;28.15
38038;BME280;23843;51.320;12.340;2023-05-22T09:14:05;100196.63;;;31.99;29.24
38038;BME280;23843;51.320;12.340;2023-05-22T09:16:31;100192.03;;;32.11;29.41
38038;BME280;23843;51.320;12.340;2023-05-22T09:18:56;100197.25;;;31.76;28.46
38038;BME280;23843;51.320;12.340;2023-05-22T09:21:26;100190.78;;;31.89;28.74
38038;BME280;23843;51.320;12.340;2023-05-22T09:23:51;100190.84;;;31.82;30.15
38038;BME280;23843;51.320;12.340;2023-05-22T09:26:18;100190.16;;;32.12;28.60
38038;BME280;23843;51.320;12.340;2023-05-22T09:28:46;100186.75;;;31.91;28.48
38038;BME280;23843;51.320;12.340;2023-05-22T09:31:12;100178.13;;;31.51;29.64
38038;BME280;23843;51.320;12.340;2023-05-22T09:33:37;100178.66;;;31.34;29.57
38038;BME280;23843;51.320;12.340;2023-05-22T09:36:07;100173.75;;;31.43;29.27
38038;BME280;23843;51.320;12.340;2023-05-22T09:38:33;100184.13;;;31.41;29.20
38038;BME280;23843;51.320;12.340;2023-05-22T09:40:59;100176.25;;;31.20;28.92
38038;BME280;23843;51.320;12.340;2023-05-22T09:43:26;100179.09;;;31.06;29.56
38038;BME280;23843;51.320;12.340;2023-05-22T09:45:55;100185.16;;;30.83;29.70
38038;BME280;23843;51.320;12.340;2023-05-22T09:48:21;100185.59;;;30.74;29.83
38038;BME280;23843;51.320;12.340;2023-05-22T09:50:46;100183.22;;;29.80;29.36
38038;BME280;23843;51.320;12.340;2023-05-22T09:53:12;100186.56;;;29.42;30.05
38038;BME280;23843;51.320;12.340;2023-05-22T09:55:40;100186.78;;;29.34;30.97
38038;BME280;23843;51.320;12.340;2023-05-22T09:58:06;100181.75;;;29.18;30.69
38038;BME280;23843;51.320;12.340;2023-05-22T10:00:35;100178.38;;;29.16;31.11
38038;BME280;23843;51.320;12.340;2023-05-22T10:03:01;100187.75;;;28.87;31.21
38038;BME280;23843;51.320;12.340;2023-05-22T10:05:31;100191.88;;;28.63;31.96
38038;BME280;23843;51.320;12.340;2023-05-22T10:08:02;100175.38;;;28.23;31.55
38038;BME280;23843;51.320;12.340;2023-05-22T10:10:29;100171.72;;;28.02;32.19
38038;BME280;23843;51.320;12.340;2023-05-22T10:12:56;100170.97;;;27.87;31.87
38038;BME280;23843;51.320;12.340;2023-05-22T10:15:22;100170.44;;;27.70;32.36
38038;BME280;23843;51.320;12.340;2023-05-22T10:17:49;100170.41;;;27.63;32.93
38038;BME280;23843;51.320;12.340;2023-05-22T10:20:15;100166.56;;;27.58;33.55
38038;BME280;23843;51.320;12.340;2023-05-22T10:22:41;100162.97;;;27.50;33.57
38038;BME280;23843;51.320;12.340;2023-05-22T10:25:08;100162.53;;;27.47;34.46
38038;BME280;23843;51.320;12.340;2023-05-22T10:27:33;100161.47;;;27.48;34.56
38038;BME280;23843;51.320;12.340;2023-05-22T10:30:09;100159.88;;;27.53;34.44
38038;BME280;23843;51.320;12.340;2023-05-22T10:32:41;100161.13;;;27.58;34.71
38038;BME280;23843;51.320;12.340;2023-05-22T10:35:17;100151.97;;;27.65;34.50
38038;BME280;23843;51.320;12.340;2023-05-22T10:37:48;100160.09;;;27.87;33.91
38038;BME280;23843;51.320;12.340;2023-05-22T10:40:18;100149.03;;;27.88;34.57
38038;BME280;23843;51.320;12.340;2023-05-22T10:42:45;100145.47;;;27.88;34.01
38038;BME280;23843;51.320;12.340;2023-05-22T10:45:11;100138.81;;;27.97;34.45
38038;BME280;23843;51.320;12.340;2023-05-22T10:47:37;100142.59;;;28.03;34.54
38038;BME280;23843;51.320;12.340;2023-05-22T10:50:05;100145.72;;;28.00;33.50
38038;BME280;23843;51.320;12.340;2023-05-22T10:52:33;100142.84;;;27.80;33.86
38038;BME280;23843;51.320;12.340;2023-05-22T10:54:59;100141.97;;;27.72;33.80
38038;BME280;23843;51.320;12.340;2023-05-22T10:57:24;100136.88;;;27.56;34.71
38038;BME280;23843;51.320;12.340;2023-05-22T10:59:50;100138.38;;;27.65;34.44
38038;BME280;23843;51.320;12.340;2023-05-22T11:02:19;100151.13;;;27.65;34.77
38038;BME280;23843;51.320;12.340;2023-05-22T11:04:45;100143.44;;;27.68;34.39
38038;BME280;23843;51.320;12.340;2023-05-22T11:07:10;100129.94;;;27.53;34.78
38038;BME280;23843;51.320;12.340;2023-05-22T11:09:39;100134.75;;;27.51;34.94
38038;BME280;23843;51.320;12.340;2023-05-22T11:12:16;100138.06;;;27.47;35.20
38038;BME280;23843;51.320;12.340;2023-05-22T11:14:42;100130.94;;;27.46;34.50
38038;BME280;23843;51.320;12.340;2023-05-22T11:17:10;100130.88;;;27.39;34.50
38038;BME280;23843;51.320;12.340;2023-05-22T11:19:39;100135.63;;;27.30;35.41
38038;BME280;23843;51.320;12.340;2023-05-22T11:22:04;100119.00;;;27.19;34.00
38038;BME280;23843;51.320;12.340;2023-05-22T11:24:31;100128.50;;;27.08;34.72
38038;BME280;23843;51.320;12.340;2023-05-22T11:27:05;100126.91;;;26.92;35.57
38038;BME280;23843;51.320;12.340;2023-05-22T11:29:31;100128.19;;;26.75;36.16
38038;BME280;23843;51.320;12.340;2023-05-22T11:31:57;100120.91;;;26.75;36.46
38038;BME280;23843;51.320;12.340;2023-05-22T11:34:23;100115.72;;;26.80;35.67
38038;BME280;23843;51.320;12.340;2023-05-22T11:36:49;100113.09;;;26.65;35.75
38038;BME280;23843;51.320;12.340;2023-05-22T11:39:16;100118.97;;;26.69;35.90
38038;BME280;23843;51.320;12.340;2023-05-22T11:41:41;100112.88;;;26.67;36.04
38038;BME280;23843;51.320;12.340;2023-05-22T11:44:08;100099.69;;;26.64;36.20
38038;BME280;23843;51.320;12.340;2023-05-22T11:46:34;100104.53;;;26.68;36.06
38038;BME280;23843;51.320;12.340;2023-05-22T11:48:59;100110.28;;;26.80;35.26
38038;BME280;23843;51.320;12.340;2023-05-22T11:51:26;100103.31;;;26.71;35.75
38038;BME280;23843;51.320;12.340;2023-05-22T11:53:51;100104.31;;;26.70;35.11
38038;BME280;23843;51.320;12.340;2023-05-22T11:56:19;100102.88;;;26.53;35.21
38038;BME280;23843;51.320;12.340;2023-05-22T11:58:46;100100.00;;;26.54;35.22
38038;BME280;23843;51.320;12.340;2023-05-22T12:01:13;100087.31;;;26.61;34.73
38038;BME280;23843;51.320;12.340;2023-05-22T12:03:39;100091.94;;;26.61;34.87
38038;BME280;23843;51.320;12.340;2023-05-22T12:06:04;100098.28;;;26.68;34.82
38038;BME280;23843;51.320;12.340;2023-05-22T12:08:30;100091.78;;;26.69;34.19
38038;BME280;23843;51.320;12.340;2023-05-22T12:10:55;100081.63;;;26.78;34.29
38038;BME280;23843;51.320;12.340;2023-05-22T12:13:25;100086.84;;;26.79;34.37
38038;BME280;23843;51.320;12.340;2023-05-22T12:15:52;100084.28;;;26.71;34.00
38038;BME280;23843;51.320;12.340;2023-05-22T12:18:19;100087.44;;;26.75;34.29
38038;BME280;23843;51.320;12.340;2023-05-22T12:20:45;100091.78;;;26.69;33.79
38038;BME280;23843;51.320;12.340;2023-05-22T12:23:11;100088.81;;;26.64;34.43
38038;BME280;23843;51.320;12.340;2023-05-22T12:25:36;100081.97;;;26.68;33.90
38038;BME280;23843;51.320;12.340;2023-05-22T12:28:01;100077.53;;;26.67;33.57
38038;BME280;23843;51.320;12.340;2023-05-22T12:30:27;100095.72;;;26.66;34.03
38038;BME280;23843;51.320;12.340;2023-05-22T12:32:55;100072.91;;;26.61;33.60
38038;BME280;23843;51.320;12.340;2023-05-22T12:35:22;100068.38;;;26.68;33.92